Time;durP1;ratioP1;P1;durP2;ratioP2;P2;SDS_P1;SDS_P2;PMS_P1;PMS_P2;Temp;Humidity;BMP_temperature;BMP_pressure;BME280_temperature;BME280_humidity;BME280_pressure;Samples;Min_cycle;Max_cycle;Signal;HPM_P1;HPM_P2
2023/10/06 00:03:04;;;;;;;12.13;6.00;;;;;;;15.81;80.18;102432.78;7395140;19;20037;-65
2023/10/06 00:05:33;;;;;;;12.30;5.63;;;;;;;15.79;79.94;102430.22;7251517;19;2805461;-65
2023/10/06 00:08:04;;;;;;;13.50;5.97;;;;;;;15.78;80.00;102428.50;7396879;19;20018;-65
2023/10/06 00:10:32;;;;;;;13.23;6.05;;;;;;;15.76;79.89;102422.44;7397666;19;20019;-64
2023/10/06 00:13:03;;;;;;;12.90;6.00;;;;;;;15.67;80.15;102433.72;7396975;19;20018;-64
2023/10/06 00:15:40;;;;;;;15.20;5.82;;;;;;;15.69;80.17;102426.47;7395600;19;20098;-64
2023/10/06 00:18:16;;;;;;;13.57;5.90;;;;;;;15.73;80.13;102433.31;7396398;19;20056;-65
2023/10/06 00:20:49;;;;;;;14.48;6.35;;;;;;;15.68;80.11;102429.25;7396739;19;20022;-64
2023/10/06 00:23:21;;;;;;;11.52;5.45;;;;;;;15.72;79.78;102430.75;7397596;19;20044;-64
2023/10/06 00:25:51;;;;;;;13.05;5.75;;;;;;;15.70;79.83;102422.84;7396043;19;20031;-64
2023/10/06 00:28:20;;;;;;;12.02;5.88;;;;;;;15.71;79.45;102419.19;7394089;19;20043;-64
2023/10/06 00:30:55;;;;;;;13.90;6.35;;;;;;;15.71;79.43;102421.03;7396846;19;20022;-65
2023/10/06 00:33:27;;;;;;;11.40;5.93;;;;;;;15.69;79.21;102414.94;7397302;19;20023;-64
2023/10/06 00:35:55;;;;;;;12.73;6.13;;;;;;;15.68;79.27;102416.78;7394243;19;20025;-64
2023/10/06 00:38:23;;;;;;;10.35;5.40;;;;;;;15.75;79.03;102402.00;7395104;19;20043;-64
2023/10/06 00:40:51;;;;;;;12.68;6.18;;;;;;;15.73;78.85;102406.63;7396703;19;20039;-64
2023/10/06 00:43:36;;;;;;;12.07;5.57;;;;;;;15.73;78.51;102401.28;7397086;19;20048;-64
2023/10/06 00:46:07;;;;;;;12.15;5.85;;;;;;;15.57;79.08;102398.78;7395732;19;20010;-64
2023/10/06 00:48:44;;;;;;;14.23;6.10;;;;;;;15.65;78.89;102406.28;7395106;19;20051;-64
2023/10/06 00:51:21;;;;;;;11.70;5.55;;;;;;;15.67;78.81;102407.03;7396105;19;20014;-64
2023/10/06 00:53:52;;;;;;;13.20;6.57;;;;;;;15.68;78.54;102407.88;7396367;19;20019;-64
2023/10/06 00:56:23;;;;;;;12.98;5.75;;;;;;;15.70;78.20;102405.97;7394234;19;20022;-64
2023/10/06 00:58:52;;;;;;;14.88;5.75;;;;;;;15.73;78.19;102411.94;7394287;19;20043;-64
2023/10/06 01:01:21;;;;;;;11.45;5.22;;;;;;;15.71;78.12;102405.84;7396062;19;20014;-64
2023/10/06 01:04:00;;;;;;;12.68;5.95;;;;;;;15.71;78.05;102397.84;7395188;19;20491;-64
2023/10/06 01:06:37;;;;;;;12.20;5.68;;;;;;;15.69;78.06;102396.25;7396187;19;20070;-64
2023/10/06 01:09:19;;;;;;;11.60;5.50;;;;;;;15.72;77.92;102399.56;7393768;19;20025;-64
2023/10/06 01:11:55;;;;;;;12.32;5.40;;;;;;;15.67;77.97;102392.81;7396353;19;20048;-64
2023/10/06 01:14:27;;;;;;;14.13;5.80;;;;;;;15.65;77.86;102394.72;7394237;19;20014;-64
2023/10/06 01:19:47;;;;;;;12.18;5.72;;;;;;;15.63;77.96;102415.31;7392867;19;20022;-64
2023/10/06 01:22:24;;;;;;;12.40;5.63;;;;;;;15.66;77.86;102409.81;7395282;19;20513;-64
2023/10/06 01:24:55;;;;;;;12.13;5.75;;;;;;;15.66;77.71;102410.66;7393511;19;20048;-64
2023/10/06 01:27:26;;;;;;;12.57;5.88;;;;;;;15.73;77.45;102406.63;7395808;19;20022;-64
2023/10/06 01:30:17;;;;;;;11.30;5.22;;;;;;;15.74;77.20;102400.31;7392634;19;20015;-64
2023/10/06 01:32:45;;;;;;;12.52;5.45;;;;;;;15.71;77.61;102395.16;7394770;19;20014;-64
2023/10/06 01:35:13;;;;;;;12.25;5.80;;;;;;;15.66;77.66;102396.47;7393537;19;20779;-64
2023/10/06 01:37:42;;;;;;;12.65;5.38;;;;;;;15.69;77.56;102389.09;7394381;19;20067;-64
2023/10/06 01:41:02;;;;;;;13.07;6.28;;;;;;;15.66;77.64;102383.09;7394750;19;20018;-64
2023/10/06 01:42:59;;;;;;;11.55;6.22;;;;;;;15.59;77.90;102382.63;7393498;19;20044;-64
2023/10/06 01:45:28;;;;;;;11.52;5.95;;;;;;;15.70;77.70;102371.25;7394634;19;20025;-64
2023/10/06 01:47:58;;;;;;;12.85;6.22;;;;;;;15.67;77.35;102364.28;7393707;19;20018;-65
2023/10/06 01:50:27;;;;;;;17.85;6.63;;;;;;;15.64;77.69;102358.28;7392050;19;20383;-64
2023/10/06 01:53:06;;;;;;;15.13;7.55;;;;;;;15.52;78.00;102352.81;7391179;19;20029;-64
2023/10/06 01:55:39;;;;;;;12.63;6.25;;;;;;;15.46;78.38;102358.59;7391792;19;20018;-64
2023/10/06 01:58:11;;;;;;;13.77;6.93;;;;;;;15.46;78.29;102353.25;7390290;19;20022;-64
2023/10/06 02:00:39;;;;;;;15.35;7.70;;;;;;;15.52;78.05;102349.28;7391972;19;20026;-64
2023/10/06 02:03:10;;;;;;;17.30;8.35;;;;;;;15.54;77.93;102334.03;7393147;19;20015;-64
2023/10/06 02:05:42;;;;;;;15.52;7.57;;;;;;;15.56;78.06;102338.28;7394210;19;20014;-64
2023/10/06 02:08:10;;;;;;;14.40;8.60;;;;;;;15.58;77.77;102332.84;7394168;19;20106;-64
2023/10/06 02:10:38;;;;;;;15.00;8.40;;;;;;;15.54;77.91;102332.22;7391346;19;20010;-64
2023/10/06 02:13:06;;;;;;;15.93;8.15;;;;;;;15.54;78.18;102334.03;7394277;19;20031;-64
2023/10/06 02:15:33;;;;;;;15.00;8.52;;;;;;;15.60;77.81;102342.44;7391375;19;20010;-64
2023/10/06 02:18:01;;;;;;;17.67;8.95;;;;;;;15.59;77.63;102337.22;7393827;19;20035;-64
2023/10/06 02:20:30;;;;;;;14.38;8.23;;;;;;;15.62;77.77;102323.66;7392914;19;20405;-64
2023/10/06 02:22:58;;;;;;;14.70;8.80;;;;;;;15.56;77.59;102326.75;7393028;19;20018;-64
2023/10/06 02:25:26;;;;;;;15.70;9.55;;;;;;;15.42;78.30;102334.88;7392138;19;20044;-64
2023/10/06 02:27:54;;;;;;;19.83;9.90;;;;;;;15.41;78.38;102335.81;7393141;19;20022;-64
2023/10/06 02:30:39;;;;;;;15.52;10.25;;;;;;;15.44;78.04;102333.81;7393019;19;20081;-64
2023/10/06 02:33:07;;;;;;;17.20;9.95;;;;;;;15.43;77.91;102336.59;7391563;19;20456;-64
2023/10/06 02:35:35;;;;;;;14.95;9.45;;;;;;;15.46;77.80;102331.91;7391965;19;20380;-64
2023/10/06 02:38:05;;;;;;;17.25;9.77;;;;;;;15.34;78.10;102317.59;7392130;19;20121;-64
2023/10/06 02:40:47;;;;;;;16.02;10.07;;;;;;;15.43;77.84;102315.22;7392412;19;20026;-64
2023/10/06 02:43:20;;;;;;;16.33;9.80;;;;;;;15.40;77.87;102320.78;7392636;19;20015;-64
2023/10/06 02:45:48;;;;;;;15.80;9.93;;;;;;;15.39;77.83;102319.94;7393032;19;20019;-64
2023/10/06 02:48:17;;;;;;;16.60;9.02;;;;;;;15.48;77.26;102319.28;7391466;19;20025;-64
2023/10/06 02:50:49;;;;;;;17.45;9.63;;;;;;;15.53;77.11;102317.16;7392536;19;20010;-64
2023/10/06 02:53:20;;;;;;;15.05;9.07;;;;;;;15.55;77.04;102315.22;7392004;19;20047;-64
2023/10/06 02:55:55;;;;;;;15.00;9.73;;;;;;;15.45;77.10;102307.94;7391876;19;20025;-64
2023/10/06 02:58:27;;;;;;;16.50;9.70;;;;;;;15.37;77.46;102311.16;7389119;19;20018;-65
2023/10/06 03:00:55;;;;;;;14.50;9.60;;;;;;;15.43;77.16;102305.41;7392374;19;20393;-64
2023/10/06 03:03:27;;;;;;;14.60;9.57;;;;;;;15.45;77.09;102307.94;7391825;19;20026;-64
2023/10/06 03:05:56;;;;;;;14.18;9.48;;;;;;;15.42;76.99;102309.03;7391939;19;20019;-64
2023/10/06 03:08:27;;;;;;;16.55;9.18;;;;;;;15.39;76.81;102300.38;7391220;19;20023;-64
2023/10/06 03:10:55;;;;;;;17.30;9.05;;;;;;;15.44;76.75;102295.56;7391701;19;20499;-64
2023/10/06 03:13:33;;;;;;;14.77;9.13;;;;;;;15.51;76.52;102297.72;7391525;19;20035;-65
2023/10/06 03:16:03;;;;;;;17.70;9.43;;;;;;;15.39;76.81;102303.91;7390442;19;20482;-64
2023/10/06 03:18:31;;;;;;;18.63;9.85;;;;;;;15.35;76.83;102303.25;7390302;19;20022;-64
2023/10/06 03:21:18;;;;;;;15.00;8.40;;;;;;;15.42;76.65;102295.69;7391253;19;20022;-64
2023/10/06 03:23:47;;;;;;;14.68;7.80;;;;;;;15.48;76.39;102303.25;7391265;19;20011;-64
2023/10/06 03:26:25;;;;;;;13.93;7.70;;;;;;;15.52;76.31;102302.06;7391384;19;20015;-64
2023/10/06 03:28:53;;;;;;;17.95;7.65;;;;;;;15.44;76.37;102298.25;7389692;19;20018;-64
2023/10/06 03:33:50;;;;;;;13.40;7.68;;;;;;;15.39;76.68;102297.72;7390957;19;20022;-64
2023/10/06 03:36:26;;;;;;;11.38;7.13;;;;;;;15.43;76.41;102304.56;7390212;19;20395;-64
2023/10/06 03:38:57;;;;;;;11.80;7.10;;;;;;;15.42;76.41;102302.84;7389205;19;20039;-64
2023/10/06 03:41:25;;;;;;;12.02;6.47;;;;;;;15.46;76.22;102299.84;7391533;19;20029;-64
2023/10/06 03:43:57;;;;;;;13.25;7.22;;;;;;;15.44;75.92;102301.75;7391259;19;20365;-64
2023/10/06 03:46:25;;;;;;;13.63;6.93;;;;;;;15.48;76.04;102297.06;7390450;19;20023;-64
2023/10/06 03:48:52;;;;;;;13.13;6.57;;;;;;;15.51;75.69;102284.38;7389006;19;20045;-64
2023/10/06 03:51:20;;;;;;;13.25;6.72;;;;;;;15.54;75.58;102293.97;7390447;19;20417;-64
2023/10/06 03:53:51;;;;;;;13.48;6.25;;;;;;;15.58;75.45;102276.78;7390442;19;20034;-64
2023/10/06 03:56:18;;;;;;;15.02;6.78;;;;;;;15.53;75.25;102281.56;7388966;19;20029;-64
2023/10/06 03:58:46;;;;;;;12.00;6.22;;;;;;;15.53;75.21;102277.13;7388565;19;20399;-64
2023/10/06 04:01:26;;;;;;;12.88;6.68;;;;;;;15.53;75.14;102277.13;7391080;19;20021;-64
2023/10/06 04:03:54;;;;;;;13.70;6.40;;;;;;;15.40;75.59;102264.72;7390346;19;20082;-64
2023/10/06 04:06:23;;;;;;;16.73;5.93;;;;;;;15.39;75.65;102263.00;7390638;19;20019;-64
2023/10/06 04:08:52;;;;;;;15.77;5.93;;;;;;;15.48;75.50;102255.19;7388738;19;20022;-64
2023/10/06 04:11:20;;;;;;;15.15;6.47;;;;;;;15.51;75.37;102256.81;7389099;19;20658;-64
2023/10/06 04:13:48;;;;;;;12.32;6.00;;;;;;;15.48;75.39;102254.34;7390158;19;20010;-64
2023/10/06 04:16:16;;;;;;;15.40;6.07;;;;;;;15.48;75.26;102252.53;7389189;19;20094;-64
2023/10/06 04:18:47;;;;;;;13.85;6.03;;;;;;;15.48;75.16;102259.69;7389171;19;20030;-64
2023/10/06 04:21:16;;;;;;;12.45;5.90;;;;;;;15.40;75.14;102249.56;7390481;19;20018;-64
2023/10/06 04:23:44;;;;;;;12.27;5.60;;;;;;;15.34;75.73;102256.19;7397042;19;20359;-64
2023/10/06 04:26:16;;;;;;;13.13;5.50;;;;;;;15.40;75.53;102249.56;7396850;19;20039;-64
2023/10/06 04:28:47;;;;;;;9.77;5.03;;;;;;;15.42;75.55;102246.78;7395489;19;20023;-65
2023/10/06 04:31:15;;;;;;;13.98;5.65;;;;;;;15.40;75.30;102246.03;7397411;19;20014;-64
2023/10/06 04:33:44;;;;;;;11.68;5.60;;;;;;;15.46;75.25;102237.59;7397052;19;20018;-64
2023/10/06 04:36:12;;;;;;;12.95;5.70;;;;;;;15.44;75.05;102234.16;7395248;19;20019;-65
2023/10/06 04:38:40;;;;;;;13.07;5.65;;;;;;;15.40;75.12;102236.19;7395140;19;20352;-65
2023/10/06 04:41:10;;;;;;;11.07;4.97;;;;;;;15.44;75.02;102243.03;7397456;19;20014;-65
2023/10/06 04:43:45;;;;;;;12.15;5.10;;;;;;;15.38;75.23;102238.13;7396870;19;20022;-65
2023/10/06 04:46:13;;;;;;;12.25;5.15;;;;;;;15.44;75.18;102237.69;7396555;19;20030;-63
2023/10/06 04:48:41;;;;;;;15.70;6.00;;;;;;;15.39;75.03;102237.16;7394530;19;20027;-65
2023/10/06 04:51:09;;;;;;;9.80;4.70;;;;;;;15.38;75.00;102238.13;7396088;19;20022;-65
2023/10/06 04:53:37;;;;;;;9.90;4.65;;;;;;;15.38;75.04;102234.59;7396090;19;20015;-65
2023/10/06 04:56:08;;;;;;;11.57;5.07;;;;;;;15.36;75.03;102237.38;7395527;19;20010;-65
2023/10/06 04:58:39;;;;;;;14.30;5.15;;;;;;;15.32;75.07;102223.41;7394226;19;20018;-65
2023/10/06 05:01:07;;;;;;;13.30;4.53;;;;;;;15.33;75.18;102214.41;7394900;19;20027;-65
2023/10/06 05:03:45;;;;;;;11.40;5.22;;;;;;;15.39;74.93;102220.31;7395800;19;20015;-65
2023/10/06 05:06:16;;;;;;;11.20;4.55;;;;;;;15.41;74.56;102229.03;7395787;19;20044;-64
2023/10/06 05:08:49;;;;;;;10.95;4.93;;;;;;;15.44;74.14;102232.34;7394135;19;20022;-64
2023/10/06 05:11:18;;;;;;;10.38;4.55;;;;;;;15.34;74.52;102220.63;7396341;19;20022;-65
2023/10/06 05:13:52;;;;;;;10.27;4.53;;;;;;;15.38;74.41;102215.91;7395437;19;20019;-65
2023/10/06 05:16:22;;;;;;;13.38;4.60;;;;;;;15.38;74.67;102215.91;7395198;19;20047;-65
2023/10/06 05:18:51;;;;;;;10.85;4.80;;;;;;;15.30;74.51;102212.00;7394081;19;20022;-64
2023/10/06 05:21:20;;;;;;;11.77;4.70;;;;;;;15.38;74.30;102199.88;7397161;19;20035;-64
2023/10/06 05:23:48;;;;;;;11.88;4.50;;;;;;;15.47;73.78;102202.78;7398588;19;20244;-64
2023/10/06 05:26:16;;;;;;;11.15;4.85;;;;;;;15.45;73.72;102206.50;7396908;19;20361;-65
2023/10/06 05:28:44;;;;;;;12.90;4.70;;;;;;;15.42;73.72;102206.75;7396106;19;20521;-65
2023/10/06 05:31:12;;;;;;;16.58;5.18;;;;;;;15.46;73.58;102206.41;7395848;19;20022;-65
2023/10/06 05:33:40;;;;;;;10.93;4.65;;;;;;;15.44;73.30;102189.63;7392897;19;20371;-65
2023/10/06 05:36:10;;;;;;;10.38;4.70;;;;;;;15.40;73.51;102197.97;7394541;19;20772;-65
2023/10/06 05:38:39;;;;;;;14.07;5.28;;;;;;;15.36;73.67;102200.84;7393269;19;20041;-65
2023/10/06 05:41:11;;;;;;;12.45;5.55;;;;;;;15.33;73.80;102184.19;7394455;19;20015;-65
2023/10/06 05:43:40;;;;;;;14.48;5.10;;;;;;;15.23;74.18;102176.00;7395055;19;20026;-65
2023/10/06 05:46:09;;;;;;;13.38;5.38;;;;;;;15.25;74.09;102189.22;7394536;19;20031;-64
2023/10/06 05:48:38;;;;;;;10.23;4.72;;;;;;;15.31;73.89;102184.31;7393226;19;20018;-64
2023/10/06 05:51:08;;;;;;;10.40;4.13;;;;;;;15.22;74.25;102197.44;7394710;19;20015;-64
2023/10/06 05:53:40;;;;;;;13.13;4.85;;;;;;;15.25;74.30;102190.09;7394295;19;20258;-64
2023/10/06 05:56:07;;;;;;;11.38;4.25;;;;;;;15.31;74.03;102189.66;7393699;19;20039;-65
2023/10/06 05:58:37;;;;;;;13.25;5.22;;;;;;;15.30;74.05;102185.28;7392572;19;20351;-65
2023/10/06 06:01:13;;;;;;;12.68;4.65;;;;;;;15.34;73.94;102175.25;7393714;19;20010;-65
2023/10/06 06:03:47;;;;;;;10.02;4.63;;;;;;;15.42;73.60;102169.38;7394306;19;20015;-65
2023/10/06 06:06:16;;;;;;;12.60;4.82;;;;;;;15.43;73.48;102189.75;7394391;19;20015;-65
2023/10/06 06:08:47;;;;;;;13.93;5.13;;;;;;;15.41;73.60;102175.66;7392251;19;20508;-65
2023/10/06 06:11:16;;;;;;;13.02;5.55;;;;;;;15.44;73.27;102175.44;7394254;19;20025;-65
2023/10/06 06:13:44;;;;;;;13.88;5.55;;;;;;;15.40;73.62;102173.94;7393816;19;20044;-65
2023/10/06 06:16:22;;;;;;;14.05;4.82;;;;;;;15.39;73.76;102182.94;7392745;19;20021;-65
2023/10/06 06:18:50;;;;;;;12.30;4.82;;;;;;;15.43;73.29;102179.06;7392267;19;20337;-65
2023/10/06 06:21:24;;;;;;;12.63;5.22;;;;;;;15.44;73.30;102176.28;7393435;19;20010;-65
2023/10/06 06:23:56;;;;;;;13.43;5.40;;;;;;;15.45;73.47;102169.97;7393506;19;20117;-65
2023/10/06 06:26:25;;;;;;;12.95;5.05;;;;;;;15.49;73.44;102173.28;7393193;19;20082;-65
2023/10/06 06:28:52;;;;;;;15.38;4.90;;;;;;;15.54;73.08;102176.50;7392011;19;20021;-65
2023/10/06 06:31:21;;;;;;;11.77;5.25;;;;;;;15.61;72.80;102175.09;7393161;19;20018;-65
2023/10/06 06:33:55;;;;;;;13.18;4.80;;;;;;;15.57;73.10;102179.81;7393238;19;20032;-64
2023/10/06 06:36:31;;;;;;;11.60;4.90;;;;;;;15.50;73.36;102177.69;7392701;19;20015;-64
2023/10/06 06:38:59;;;;;;;13.60;5.65;;;;;;;15.49;73.33;102170.59;7391337;19;20015;-65
2023/10/06 06:41:27;;;;;;;12.85;5.05;;;;;;;15.48;73.29;102177.78;7392911;19;20023;-65
2023/10/06 06:43:58;;;;;;;13.10;4.93;;;;;;;15.55;73.24;102188.88;7392859;19;20018;-65
2023/10/06 06:46:26;;;;;;;13.38;5.47;;;;;;;15.49;73.17;102186.63;7394659;19;20028;-65
2023/10/06 06:48:54;;;;;;;13.43;4.72;;;;;;;15.53;73.17;102191.66;7392888;19;20052;-65
2023/10/06 06:51:27;;;;;;;11.68;5.25;;;;;;;15.63;72.99;102180.31;7392767;19;20572;-65
2023/10/06 06:53:58;;;;;;;;;;;;;;;15.47;73.79;102175.22;7394427;19;20431;-64
2023/10/06 06:56:28;;;;;;;14.93;4.47;;;;;;;15.39;74.40;102180.25;7393701;19;19939;-65
2023/10/06 06:59:00;;;;;;;13.02;4.88;;;;;;;15.51;73.95;102174.88;7392479;19;20015;-64
2023/10/06 07:01:28;;;;;;;13.60;4.97;;;;;;;15.60;73.60;102168.03;7394113;19;20019;-63
2023/10/06 07:04:00;;;;;;;12.48;4.82;;;;;;;15.65;73.71;102170.38;7393602;19;20092;-64
2023/10/06 07:06:30;;;;;;;11.45;5.22;;;;;;;15.66;73.39;102156.09;7393620;19;20018;-63
2023/10/06 07:08:59;;;;;;;9.93;4.50;;;;;;;15.58;74.01;102160.13;7390651;19;20021;-63
2023/10/06 07:11:28;;;;;;;12.85;5.05;;;;;;;15.70;73.60;102169.09;7394330;19;20031;-64
2023/10/06 07:13:55;;;;;;;12.23;5.03;;;;;;;15.69;73.62;102159.41;7393512;19;20026;-64
2023/10/06 07:16:24;;;;;;;13.57;4.55;;;;;;;15.75;73.62;102158.94;7393615;19;20026;-64
2023/10/06 07:18:53;;;;;;;11.13;4.60;;;;;;;15.81;73.44;102152.28;7392275;19;20018;-64
2023/10/06 07:21:22;;;;;;;15.10;4.50;;;;;;;15.82;73.25;102149.50;7393491;19;20048;-64
2023/10/06 07:23:52;;;;;;;13.60;4.63;;;;;;;15.80;73.39;102148.78;7393801;19;20006;-65
2023/10/06 07:26:22;;;;;;;13.73;4.45;;;;;;;15.84;73.14;102154.75;7393301;19;20039;-65
2023/10/06 07:28:52;;;;;;;10.32;4.20;;;;;;;15.82;73.15;102146.84;7392003;19;20105;-64
2023/10/06 07:31:20;;;;;;;13.75;5.35;;;;;;;15.82;73.38;102151.31;7393168;19;20040;-64
2023/10/06 07:33:48;;;;;;;16.50;5.18;;;;;;;15.81;73.46;102147.81;7393295;19;20547;-64
2023/10/06 07:36:17;;;;;;;14.07;4.63;;;;;;;15.87;73.45;102156.31;7392942;19;20026;-64
2023/10/06 07:38:48;;;;;;;10.43;4.38;;;;;;;15.88;73.18;102134.84;7392545;19;20018;-64
2023/10/06 07:41:20;;;;;;;11.90;4.38;;;;;;;15.94;73.17;102126.38;7394658;19;20537;-64
2023/10/06 07:43:48;;;;;;;12.02;4.20;;;;;;;15.91;73.41;102139.97;7392067;19;20018;-64
2023/10/06 07:46:16;;;;;;;10.70;4.25;;;;;;;15.88;73.65;102134.00;7391721;19;20066;-64
2023/10/06 07:48:45;;;;;;;11.43;4.78;;;;;;;15.94;73.39;102128.19;7390044;19;20386;-64
2023/10/06 07:51:13;;;;;;;14.38;4.55;;;;;;;16.13;72.85;102135.69;7389867;19;20014;-64
2023/10/06 07:53:43;;;;;;;11.38;4.45;;;;;;;16.10;72.72;102134.09;7391881;19;20022;-64
2023/10/06 07:56:13;;;;;;;10.98;4.25;;;;;;;15.98;73.16;102130.50;7391277;19;20022;-63
2023/10/06 07:58:43;;;;;;;10.85;4.45;;;;;;;16.03;73.14;102146.22;7397056;19;20125;-65
2023/10/06 08:01:12;;;;;;;11.43;4.18;;;;;;;16.00;72.81;102138.44;7398401;19;20361;-65
2023/10/06 08:03:41;;;;;;;11.63;4.40;;;;;;;16.05;72.87;102137.09;7397834;19;20360;-65
2023/10/06 08:06:13;;;;;;;13.15;3.72;;;;;;;16.22;72.59;102143.03;7396273;19;20483;-65
2023/10/06 08:08:41;;;;;;;11.38;4.55;;;;;;;16.25;72.30;102148.97;7396148;19;20038;-65
2023/10/06 08:11:09;;;;;;;14.15;4.30;;;;;;;16.26;72.11;102142.69;7397578;19;20022;-65
2023/10/06 08:13:38;;;;;;;10.77;4.20;;;;;;;16.22;71.88;102140.34;7398110;19;20360;-65
2023/10/06 08:16:08;;;;;;;15.65;4.65;;;;;;;16.34;71.46;102136.75;7398043;19;20043;-65
2023/10/06 08:18:36;;;;;;;11.15;3.95;;;;;;;16.29;71.84;102137.09;7395645;19;20022;-65
2023/10/06 08:21:03;;;;;;;12.48;4.43;;;;;;;16.29;71.99;102133.56;7401936;19;20019;-65
2023/10/06 08:23:32;;;;;;;9.40;3.75;;;;;;;16.28;71.75;102129.19;7397464;19;20554;-65
2023/10/06 08:26:00;;;;;;;10.52;4.13;;;;;;;16.34;71.83;102136.75;7397784;19;20022;-65
2023/10/06 08:28:31;;;;;;;9.68;3.83;;;;;;;16.37;71.49;102128.50;7395667;19;20357;-65
2023/10/06 08:31:02;;;;;;;13.10;4.05;;;;;;;16.32;71.75;102122.63;7398090;19;20081;-63
2023/10/06 08:33:31;;;;;;;8.93;3.80;;;;;;;16.33;71.50;102135.91;7397752;19;20078;-65
2023/10/06 08:36:01;;;;;;;12.65;4.47;;;;;;;16.36;71.43;102126.78;7397012;19;20018;-65
2023/10/06 08:38:30;;;;;;;11.07;4.20;;;;;;;16.36;71.62;102141.97;7395193;19;20050;-65
2023/10/06 08:41:01;;;;;;;14.18;4.05;;;;;;;16.36;71.11;102144.63;7398412;19;20030;-63
2023/10/06 08:43:31;;;;;;;9.38;3.78;;;;;;;16.33;71.73;102157.28;7398095;19;20015;-65
2023/10/06 08:46:00;;;;;;;11.13;4.15;;;;;;;16.41;71.26;102134.44;7399738;19;20022;-65
2023/10/06 08:48:35;;;;;;;12.55;4.10;;;;;;;16.48;71.43;102131.22;7395453;19;20018;-65
2023/10/06 08:51:07;;;;;;;12.63;4.35;;;;;;;16.42;71.35;102123.66;7396982;19;20472;-65
2023/10/06 08:53:40;;;;;;;11.15;3.70;;;;;;;16.50;71.09;102112.38;7396753;19;20018;-65
2023/10/06 08:56:08;;;;;;;9.73;4.25;;;;;;;16.50;71.29;102123.06;7396996;19;20007;-66
2023/10/06 08:58:36;;;;;;;11.73;4.38;;;;;;;16.52;71.56;102134.47;7393314;19;20043;-65
2023/10/06 09:01:06;;;;;;;11.60;3.60;;;;;;;16.55;71.62;102135.09;7394753;19;20043;-65
2023/10/06 09:03:36;;;;;;;9.32;4.03;;;;;;;16.50;71.70;102137.28;7396598;19;20022;-65
2023/10/06 09:06:06;;;;;;;12.35;3.95;;;;;;;16.47;71.66;102137.50;7396151;19;20405;-65
2023/10/06 09:08:42;;;;;;;10.75;3.72;;;;;;;16.47;71.83;102142.84;7392180;19;20047;-65
2023/10/06 09:11:10;;;;;;;9.85;3.60;;;;;;;16.43;71.69;102135.19;7395971;19;20018;-65
2023/10/06 09:13:38;;;;;;;9.93;3.40;;;;;;;16.45;71.59;102142.13;7395748;19;20018;-65
2023/10/06 09:16:06;;;;;;;13.40;4.10;;;;;;;16.53;71.28;102134.38;7395673;19;20022;-65
2023/10/06 09:18:38;;;;;;;8.05;3.22;;;;;;;16.57;71.20;102127.81;7392973;19;20027;-65
2023/10/06 09:21:20;;;;;;;12.80;4.03;;;;;;;16.56;71.04;102131.47;7395645;19;20035;-64
2023/10/06 09:23:49;;;;;;;14.07;4.40;;;;;;;16.52;71.39;102134.47;7395153;19;20499;-65
2023/10/06 09:26:29;;;;;;;12.82;4.30;;;;;;;16.63;71.05;102131.81;7395979;19;20027;-65
2023/10/06 09:29:01;;;;;;;12.75;4.15;;;;;;;16.49;71.60;102132.06;7393496;19;20379;-65
2023/10/06 09:31:44;;;;;;;9.88;4.03;;;;;;;16.57;71.68;102133.16;7395538;19;20007;-64
2023/10/06 09:34:23;;;;;;;11.10;3.78;;;;;;;16.61;71.92;102133.78;7395470;19;20433;-64
2023/10/06 09:36:51;;;;;;;11.07;4.32;;;;;;;16.57;71.70;102121.63;7395999;19;20368;-64
2023/10/06 09:39:26;;;;;;;10.40;4.05;;;;;;;16.61;72.19;102117.72;7394365;19;20014;-64
2023/10/06 09:41:54;;;;;;;10.07;4.10;;;;;;;16.46;73.00;102111.75;7395248;19;20029;-64
2023/10/06 09:44:23;;;;;;;12.63;3.80;;;;;;;16.36;74.10;102113.41;7395817;19;20391;-65
2023/10/06 09:46:52;;;;;;;13.15;4.30;;;;;;;16.37;74.75;102107.13;7394194;19;20133;-65
2023/10/06 09:49:21;;;;;;;13.60;4.10;;;;;;;16.27;75.24;102114.13;7392480;19;20018;-64
2023/10/06 09:51:52;;;;;;;9.82;4.22;;;;;;;16.25;75.15;102110.69;7394523;19;20018;-65
2023/10/06 09:54:21;;;;;;;10.90;3.97;;;;;;;16.25;75.37;102122.25;7394954;19;20021;-65
2023/10/06 09:56:54;;;;;;;13.88;4.28;;;;;;;16.27;75.35;102112.28;7394448;19;20769;-65
2023/10/06 09:59:25;;;;;;;13.20;4.60;;;;;;;16.33;75.30;102114.50;7392214;19;20417;-64
2023/10/06 10:01:54;;;;;;;11.38;3.92;;;;;;;16.32;75.37;102112.78;7395864;19;20018;-64
2023/10/06 10:04:25;;;;;;;12.38;3.78;;;;;;;16.21;75.74;102120.78;7394376;19;20029;-64
2023/10/06 10:06:54;;;;;;;12.10;4.20;;;;;;;16.29;75.28;102112.16;7394278;19;20027;-64
2023/10/06 10:09:22;;;;;;;12.32;4.30;;;;;;;16.37;75.12;102114.25;7392199;19;20052;-64
2023/10/06 10:12:04;;;;;;;10.48;4.10;;;;;;;16.50;74.92;102120.38;7393310;19;20026;-65
2023/10/06 10:15:20;;;;;;;9.60;3.58;;;;;;;16.51;74.69;102106.88;7394104;19;20019;-64
2023/10/06 10:18:05;;;;;;;13.48;4.30;;;;;;;16.49;75.41;102114.19;7390921;19;20476;-65
2023/10/06 10:20:34;;;;;;;11.25;4.20;;;;;;;16.43;75.59;102114.66;7391568;19;20044;-64
2023/10/06 10:23:01;;;;;;;10.25;4.07;;;;;;;16.49;75.80;102103.50;7393731;19;20018;-64
2023/10/06 10:25:30;;;;;;;9.20;3.78;;;;;;;16.66;74.97;102104.00;7393392;19;20040;-65
2023/10/06 10:28:17;;;;;;;12.68;4.25;;;;;;;16.88;74.91;102097.84;7392941;19;20028;-65
2023/10/06 10:30:59;;;;;;;11.10;4.43;;;;;;;16.84;74.80;102096.41;7394853;19;20067;-65
2023/10/06 10:33:33;;;;;;;11.43;4.50;;;;;;;16.61;75.55;102093.66;7393385;19;20025;-65
2023/10/06 10:36:12;;;;;;;11.45;4.63;;;;;;;16.69;75.37;102082.38;7393443;19;20094;-63
2023/10/06 10:38:44;;;;;;;11.30;4.30;;;;;;;16.78;74.94;102092.38;7391549;19;20025;-63
2023/10/06 10:41:12;;;;;;;11.50;4.38;;;;;;;16.79;74.81;102086.91;7393070;19;20015;-63
2023/10/06 10:43:48;;;;;;;9.65;4.53;;;;;;;16.90;74.35;102090.53;7391726;19;20344;-62
2023/10/06 10:46:44;;;;;;;12.65;4.93;;;;;;;16.88;73.83;102087.16;7392679;19;20026;-63
2023/10/06 10:49:13;;;;;;;9.52;4.35;;;;;;;16.76;74.48;102081.78;7390881;19;20047;-62
2023/10/06 10:51:55;;;;;;;10.95;4.38;;;;;;;16.90;74.09;102086.03;7393163;19;20030;-62
2023/10/06 10:54:27;;;;;;;11.00;4.80;;;;;;;16.99;73.58;102055.03;7392971;19;20022;-65
2023/10/06 10:57:02;;;;;;;9.68;4.60;;;;;;;16.94;73.67;102076.81;7391603;19;20022;-64
2023/10/06 11:00:08;;;;;;;13.60;4.07;;;;;;;17.04;73.37;102059.03;7390531;19;20018;-63
2023/10/06 11:02:48;;;;;;;16.67;4.38;;;;;;;17.10;73.59;102049.69;7392349;19;20015;-64
2023/10/06 11:05:20;;;;;;;11.13;4.32;;;;;;;17.17;73.23;102034.81;7392498;19;20039;-63
2023/10/06 11:08:02;;;;;;;13.65;4.63;;;;;;;17.27;72.81;102041.09;7391869;19;20021;-62
2023/10/06 11:10:58;;;;;;;11.05;4.15;;;;;;;17.30;72.95;102030.16;7392015;19;20090;-64
2023/10/06 11:13:27;;;;;;;14.60;4.30;;;;;;;17.33;72.79;102039.78;7391905;19;20372;-64
2023/10/06 11:16:10;;;;;;;10.43;4.50;;;;;;;17.41;72.20;102041.81;7391711;19;20019;-62
2023/10/06 11:18:41;;;;;;;14.43;4.57;;;;;;;17.52;71.75;102041.78;7389862;19;20123;-63
2023/10/06 11:21:24;;;;;;;11.77;4.15;;;;;;;17.63;71.32;102047.13;7391624;19;20026;-63
2023/10/06 11:23:51;;;;;;;11.18;4.03;;;;;;;17.64;71.48;102034.56;7390589;19;20010;-62
2023/10/06 11:26:31;;;;;;;12.25;4.47;;;;;;;17.75;71.14;102038.09;7391645;19;20029;-64
2023/10/06 11:29:00;;;;;;;8.98;3.28;;;;;;;17.76;70.99;102030.88;7390045;19;20023;-64
2023/10/06 11:31:28;;;;;;;11.52;4.00;;;;;;;17.81;70.90;102025.13;7396279;19;20026;-64
2023/10/06 11:33:56;;;;;;;12.20;4.22;;;;;;;17.76;70.93;102006.78;7398608;19;20022;-63
2023/10/06 11:36:23;;;;;;;8.93;3.72;;;;;;;17.65;70.89;102023.72;7399131;19;20343;-63
2023/10/06 11:38:51;;;;;;;10.80;3.65;;;;;;;17.62;71.35;102015.94;7396138;19;20476;-63
2023/10/06 11:41:23;;;;;;;12.57;3.65;;;;;;;17.60;71.21;102015.22;7398549;19;20019;-65
2023/10/06 11:43:54;;;;;;;9.52;3.40;;;;;;;17.63;71.24;102017.66;7398812;19;20022;-62